sensor_id;sensor_type;location;lat;lon;timestamp;P1;durP1;ratioP1;P2;durP2;ratioP2
78622;SDS011;67943;54.412;9.502;2024-01-30T00:04:15;37.22;;;19.95;;
78622;SDS011;67943;54.412;9.502;2024-01-30T00:09:17;35.53;;;19.85;;
78622;SDS011;67943;54.412;9.502;2024-01-30T00:14:19;34.13;;;20.20;;
78622;SDS011;67943;54.412;9.502;2024-01-30T00:19:22;40.55;;;20.27;;
78622;SDS011;67943;54.412;9.502;2024-01-30T00:24:23;36.67;;;18.80;;
78622;SDS011;67943;54.412;9.502;2024-01-30T00:29:25;33.55;;;18.25;;
78622;SDS011;67943;54.412;9.502;2024-01-30T00:34:31;35.38;;;19.30;;
78622;SDS011;67943;54.412;9.502;2024-01-30T00:39:33;37.08;;;18.92;;
78622;SDS011;67943;54.412;9.502;2024-01-30T00:44:34;35.42;;;18.83;;
78622;SDS011;67943;54.412;9.502;2024-01-30T00:49:38;31.17;;;18.50;;
78622;SDS011;67943;54.412;9.502;2024-01-30T00:54:40;35.45;;;18.52;;
78622;SDS011;67943;54.412;9.502;2024-01-30T00:59:41;35.65;;;19.33;;
78622;SDS011;67943;54.412;9.502;2024-01-30T01:04:44;34.40;;;19.10;;
78622;SDS011;67943;54.412;9.502;2024-01-30T01:09:46;37.60;;;19.42;;
78622;SDS011;67943;54.412;9.502;2024-01-30T01:14:47;33.25;;;19.70;;
78622;SDS011;67943;54.412;9.502;2024-01-30T01:19:50;34.25;;;18.70;;
78622;SDS011;67943;54.412;9.502;2024-01-30T01:24:52;34.78;;;18.75;;
78622;SDS011;67943;54.412;9.502;2024-01-30T01:29:54;33.17;;;17.92;;
78622;SDS011;67943;54.412;9.502;2024-01-30T01:34:56;34.13;;;19.15;;
78622;SDS011;67943;54.412;9.502;2024-01-30T01:39:58;35.40;;;19.30;;
78622;SDS011;67943;54.412;9.502;2024-01-30T01:44:59;29.60;;;17.25;;
78622;SDS011;67943;54.412;9.502;2024-01-30T01:50:02;32.15;;;18.13;;
78622;SDS011;67943;54.412;9.502;2024-01-30T01:55:04;35.28;;;18.52;;
78622;SDS011;67943;54.412;9.502;2024-01-30T02:00:07;29.08;;;17.40;;
78622;SDS011;67943;54.412;9.502;2024-01-30T02:05:11;33.17;;;19.05;;
78622;SDS011;67943;54.412;9.502;2024-01-30T02:10:13;33.38;;;18.88;;
78622;SDS011;67943;54.412;9.502;2024-01-30T02:15:15;35.10;;;19.45;;
78622;SDS011;67943;54.412;9.502;2024-01-30T02:20:18;32.40;;;19.30;;
78622;SDS011;67943;54.412;9.502;2024-01-30T02:25:21;31.92;;;18.48;;
78622;SDS011;67943;54.412;9.502;2024-01-30T02:30:31;33.13;;;18.90;;
78622;SDS011;67943;54.412;9.502;2024-01-30T02:35:33;35.78;;;18.95;;
78622;SDS011;67943;54.412;9.502;2024-01-30T02:40:36;35.05;;;20.55;;
78622;SDS011;67943;54.412;9.502;2024-01-30T02:45:38;29.52;;;17.30;;
78622;SDS011;67943;54.412;9.502;2024-01-30T02:50:39;31.05;;;17.38;;
78622;SDS011;67943;54.412;9.502;2024-01-30T02:55:42;34.33;;;18.40;;
78622;SDS011;67943;54.412;9.502;2024-01-30T03:00:43;31.02;;;17.27;;
78622;SDS011;67943;54.412;9.502;2024-01-30T03:05:45;29.70;;;18.10;;
78622;SDS011;67943;54.412;9.502;2024-01-30T03:10:48;32.30;;;18.13;;
78622;SDS011;67943;54.412;9.502;2024-01-30T03:15:49;32.63;;;18.75;;
78622;SDS011;67943;54.412;9.502;2024-01-30T03:20:51;32.05;;;17.98;;
78622;SDS011;67943;54.412;9.502;2024-01-30T03:25:54;29.83;;;17.83;;
78622;SDS011;67943;54.412;9.502;2024-01-30T03:30:55;31.38;;;19.05;;
78622;SDS011;67943;54.412;9.502;2024-01-30T03:35:57;28.80;;;17.23;;
78622;SDS011;67943;54.412;9.502;2024-01-30T03:40:59;32.80;;;17.88;;
78622;SDS011;67943;54.412;9.502;2024-01-30T03:46:01;29.85;;;18.25;;
78622;SDS011;67943;54.412;9.502;2024-01-30T03:51:03;34.00;;;18.27;;
78622;SDS011;67943;54.412;9.502;2024-01-30T03:56:07;30.73;;;17.20;;
78622;SDS011;67943;54.412;9.502;2024-01-30T04:01:12;31.88;;;18.63;;
78622;SDS011;67943;54.412;9.502;2024-01-30T04:06:14;30.13;;;18.15;;
78622;SDS011;67943;54.412;9.502;2024-01-30T04:11:19;33.10;;;18.75;;
78622;SDS011;67943;54.412;9.502;2024-01-30T04:16:21;27.42;;;17.63;;
78622;SDS011;67943;54.412;9.502;2024-01-30T04:21:23;29.60;;;18.48;;
78622;SDS011;67943;54.412;9.502;2024-01-30T04:26:25;31.15;;;17.83;;
78622;SDS011;67943;54.412;9.502;2024-01-30T04:31:27;30.70;;;17.73;;
78622;SDS011;67943;54.412;9.502;2024-01-30T04:36:28;34.53;;;19.17;;
78622;SDS011;67943;54.412;9.502;2024-01-30T04:41:31;32.70;;;17.67;;
78622;SDS011;67943;54.412;9.502;2024-01-30T04:46:34;28.50;;;17.73;;
78622;SDS011;67943;54.412;9.502;2024-01-30T04:51:35;32.55;;;18.42;;
78622;SDS011;67943;54.412;9.502;2024-01-30T04:56:38;32.78;;;17.55;;
78622;SDS011;67943;54.412;9.502;2024-01-30T05:01:40;28.27;;;17.65;;
78622;SDS011;67943;54.412;9.502;2024-01-30T05:06:41;32.65;;;17.95;;
78622;SDS011;67943;54.412;9.502;2024-01-30T05:11:44;28.95;;;18.13;;
78622;SDS011;67943;54.412;9.502;2024-01-30T05:16:46;33.88;;;18.63;;
78622;SDS011;67943;54.412;9.502;2024-01-30T05:21:47;29.52;;;18.30;;
78622;SDS011;67943;54.412;9.502;2024-01-30T05:26:50;31.75;;;18.63;;
78622;SDS011;67943;54.412;9.502;2024-01-30T05:31:52;28.08;;;16.85;;
78622;SDS011;67943;54.412;9.502;2024-01-30T05:36:53;29.33;;;17.83;;
78622;SDS011;67943;54.412;9.502;2024-01-30T05:41:56;32.65;;;17.70;;
78622;SDS011;67943;54.412;9.502;2024-01-30T05:46:58;27.33;;;17.73;;
78622;SDS011;67943;54.412;9.502;2024-01-30T05:51:59;30.67;;;17.80;;
78622;SDS011;67943;54.412;9.502;2024-01-30T05:57:02;29.05;;;17.00;;
78622;SDS011;67943;54.412;9.502;2024-01-30T06:02:04;32.50;;;18.15;;
78622;SDS011;67943;54.412;9.502;2024-01-30T06:07:05;30.23;;;18.08;;
78622;SDS011;67943;54.412;9.502;2024-01-30T06:12:09;28.00;;;16.27;;
78622;SDS011;67943;54.412;9.502;2024-01-30T06:17:11;26.05;;;16.42;;
78622;SDS011;67943;54.412;9.502;2024-01-30T06:22:14;27.30;;;16.27;;
78622;SDS011;67943;54.412;9.502;2024-01-30T06:27:16;26.80;;;15.30;;
78622;SDS011;67943;54.412;9.502;2024-01-30T06:32:18;28.85;;;16.13;;
78622;SDS011;67943;54.412;9.502;2024-01-30T06:37:20;27.55;;;15.82;;
78622;SDS011;67943;54.412;9.502;2024-01-30T06:42:23;26.80;;;16.45;;
78622;SDS011;67943;54.412;9.502;2024-01-30T06:47:24;24.33;;;16.17;;
78622;SDS011;67943;54.412;9.502;2024-01-30T06:52:26;28.50;;;15.88;;
78622;SDS011;67943;54.412;9.502;2024-01-30T06:57:28;26.98;;;15.73;;
78622;SDS011;67943;54.412;9.502;2024-01-30T07:02:30;27.05;;;15.75;;
78622;SDS011;67943;54.412;9.502;2024-01-30T07:07:32;26.20;;;14.90;;
78622;SDS011;67943;54.412;9.502;2024-01-30T07:12:35;28.52;;;15.63;;
78622;SDS011;67943;54.412;9.502;2024-01-30T07:17:36;25.92;;;15.93;;
78622;SDS011;67943;54.412;9.502;2024-01-30T07:22:38;24.08;;;15.02;;
78622;SDS011;67943;54.412;9.502;2024-01-30T07:27:41;25.10;;;16.40;;
78622;SDS011;67943;54.412;9.502;2024-01-30T07:32:42;25.23;;;14.68;;
78622;SDS011;67943;54.412;9.502;2024-01-30T07:37:44;26.98;;;15.10;;
78622;SDS011;67943;54.412;9.502;2024-01-30T07:42:47;26.38;;;15.50;;
78622;SDS011;67943;54.412;9.502;2024-01-30T07:47:49;25.70;;;15.55;;
78622;SDS011;67943;54.412;9.502;2024-01-30T07:52:51;26.23;;;15.23;;
78622;SDS011;67943;54.412;9.502;2024-01-30T07:57:56;23.20;;;14.55;;
78622;SDS011;67943;54.412;9.502;2024-01-30T08:02:59;24.70;;;14.82;;
78622;SDS011;67943;54.412;9.502;2024-01-30T08:08:01;26.33;;;16.00;;
78622;SDS011;67943;54.412;9.502;2024-01-30T08:13:04;23.92;;;15.32;;
78622;SDS011;67943;54.412;9.502;2024-01-30T08:18:05;24.25;;;15.60;;
78622;SDS011;67943;54.412;9.502;2024-01-30T08:23:07;24.98;;;15.82;;
78622;SDS011;67943;54.412;9.502;2024-01-30T08:28:10;24.83;;;14.73;;
78622;SDS011;67943;54.412;9.502;2024-01-30T08:33:12;26.75;;;14.52;;
78622;SDS011;67943;54.412;9.502;2024-01-30T08:38:13;22.60;;;14.07;;
78622;SDS011;67943;54.412;9.502;2024-01-30T08:43:16;27.20;;;14.63;;
78622;SDS011;67943;54.412;9.502;2024-01-30T08:48:17;22.67;;;13.75;;
78622;SDS011;67943;54.412;9.502;2024-01-30T08:53:19;25.70;;;15.30;;
78622;SDS011;67943;54.412;9.502;2024-01-30T08:58:22;44.33;;;22.00;;
78622;SDS011;67943;54.412;9.502;2024-01-30T09:03:23;29.45;;;16.63;;
78622;SDS011;67943;54.412;9.502;2024-01-30T09:08:25;25.42;;;15.15;;
78622;SDS011;67943;54.412;9.502;2024-01-30T09:13:28;25.00;;;15.15;;
78622;SDS011;67943;54.412;9.502;2024-01-30T09:18:29;26.95;;;15.82;;
78622;SDS011;67943;54.412;9.502;2024-01-30T09:23:31;26.75;;;15.93;;
78622;SDS011;67943;54.412;9.502;2024-01-30T09:28:34;24.17;;;15.27;;
78622;SDS011;67943;54.412;9.502;2024-01-30T09:33:36;23.35;;;14.85;;
78622;SDS011;67943;54.412;9.502;2024-01-30T09:38:37;25.50;;;15.57;;
78622;SDS011;67943;54.412;9.502;2024-01-30T09:43:40;25.73;;;15.45;;
78622;SDS011;67943;54.412;9.502;2024-01-30T09:48:49;23.45;;;13.60;;
78622;SDS011;67943;54.412;9.502;2024-01-30T09:53:51;21.30;;;13.60;;
78622;SDS011;67943;54.412;9.502;2024-01-30T09:58:55;23.67;;;14.88;;
78622;SDS011;67943;54.412;9.502;2024-01-30T10:03:57;23.35;;;13.88;;
78622;SDS011;67943;54.412;9.502;2024-01-30T10:08:58;24.23;;;14.48;;
78622;SDS011;67943;54.412;9.502;2024-01-30T10:14:01;23.85;;;13.52;;
78622;SDS011;67943;54.412;9.502;2024-01-30T10:19:03;22.73;;;13.55;;
78622;SDS011;67943;54.412;9.502;2024-01-30T10:24:04;20.52;;;13.88;;
78622;SDS011;67943;54.412;9.502;2024-01-30T10:29:08;22.65;;;14.45;;
78622;SDS011;67943;54.412;9.502;2024-01-30T10:34:09;22.85;;;13.90;;
78622;SDS011;67943;54.412;9.502;2024-01-30T10:39:11;24.48;;;14.45;;
78622;SDS011;67943;54.412;9.502;2024-01-30T10:44:19;19.88;;;13.82;;
78622;SDS011;67943;54.412;9.502;2024-01-30T10:49:23;22.85;;;14.77;;
78622;SDS011;67943;54.412;9.502;2024-01-30T10:54:25;23.50;;;14.40;;
78622;SDS011;67943;54.412;9.502;2024-01-30T10:59:30;23.08;;;13.30;;
78622;SDS011;67943;54.412;9.502;2024-01-30T11:04:36;18.92;;;12.60;;
78622;SDS011;67943;54.412;9.502;2024-01-30T11:09:38;20.83;;;13.20;;
78622;SDS011;67943;54.412;9.502;2024-01-30T11:14:43;22.38;;;13.73;;
78622;SDS011;67943;54.412;9.502;2024-01-30T11:19:46;21.92;;;12.93;;
78622;SDS011;67943;54.412;9.502;2024-01-30T11:24:47;24.55;;;14.90;;
78622;SDS011;67943;54.412;9.502;2024-01-30T11:29:51;29.60;;;17.20;;
78622;SDS011;67943;54.412;9.502;2024-01-30T11:34:52;22.13;;;13.80;;
78622;SDS011;67943;54.412;9.502;2024-01-30T11:39:54;23.73;;;14.30;;
78622;SDS011;67943;54.412;9.502;2024-01-30T11:44:57;31.70;;;15.35;;
78622;SDS011;67943;54.412;9.502;2024-01-30T11:50:01;24.10;;;13.90;;
78622;SDS011;67943;54.412;9.502;2024-01-30T11:55:04;22.90;;;15.27;;
78622;SDS011;67943;54.412;9.502;2024-01-30T12:00:13;23.48;;;14.93;;
78622;SDS011;67943;54.412;9.502;2024-01-30T12:05:16;22.30;;;14.13;;
78622;SDS011;67943;54.412;9.502;2024-01-30T12:10:19;23.48;;;14.77;;
78622;SDS011;67943;54.412;9.502;2024-01-30T12:15:23;22.98;;;14.02;;
78622;SDS011;67943;54.412;9.502;2024-01-30T12:20:26;23.40;;;14.82;;
78622;SDS011;67943;54.412;9.502;2024-01-30T12:25:27;24.73;;;14.48;;
78622;SDS011;67943;54.412;9.502;2024-01-30T12:30:30;21.30;;;14.50;;
78622;SDS011;67943;54.412;9.502;2024-01-30T12:35:32;22.77;;;13.93;;
78622;SDS011;67943;54.412;9.502;2024-01-30T12:40:33;23.10;;;14.27;;
78622;SDS011;67943;54.412;9.502;2024-01-30T12:45:37;23.33;;;14.40;;
78622;SDS011;67943;54.412;9.502;2024-01-30T12:50:38;20.80;;;14.07;;
78622;SDS011;67943;54.412;9.502;2024-01-30T12:55:40;23.95;;;14.63;;
78622;SDS011;67943;54.412;9.502;2024-01-30T13:00:43;24.58;;;14.25;;
78622;SDS011;67943;54.412;9.502;2024-01-30T13:05:45;25.08;;;14.55;;
78622;SDS011;67943;54.412;9.502;2024-01-30T13:10:46;23.75;;;14.13;;
78622;SDS011;67943;54.412;9.502;2024-01-30T13:15:49;25.15;;;14.57;;
78622;SDS011;67943;54.412;9.502;2024-01-30T13:20:50;24.73;;;14.98;;
78622;SDS011;67943;54.412;9.502;2024-01-30T13:25:52;24.20;;;14.60;;
78622;SDS011;67943;54.412;9.502;2024-01-30T13:30:59;25.75;;;15.32;;
78622;SDS011;67943;54.412;9.502;2024-01-30T13:36:00;21.83;;;14.50;;
78622;SDS011;67943;54.412;9.502;2024-01-30T13:41:02;24.45;;;14.98;;
78622;SDS011;67943;54.412;9.502;2024-01-30T13:46:05;23.67;;;14.00;;
78622;SDS011;67943;54.412;9.502;2024-01-30T13:51:07;26.38;;;13.93;;
78622;SDS011;67943;54.412;9.502;2024-01-30T13:56:08;23.35;;;13.52;;
78622;SDS011;67943;54.412;9.502;2024-01-30T14:01:11;25.13;;;14.40;;
78622;SDS011;67943;54.412;9.502;2024-01-30T14:06:12;22.15;;;14.63;;
78622;SDS011;67943;54.412;9.502;2024-01-30T14:11:14;23.83;;;13.98;;
78622;SDS011;67943;54.412;9.502;2024-01-30T14:16:17;22.67;;;13.60;;
78622;SDS011;67943;54.412;9.502;2024-01-30T14:21:19;22.70;;;13.15;;
78622;SDS011;67943;54.412;9.502;2024-01-30T14:26:21;21.60;;;13.23;;
78622;SDS011;67943;54.412;9.502;2024-01-30T14:31:24;24.52;;;13.82;;
78622;SDS011;67943;54.412;9.502;2024-01-30T14:36:25;24.20;;;13.27;;
78622;SDS011;67943;54.412;9.502;2024-01-30T14:41:28;26.88;;;15.18;;
78622;SDS011;67943;54.412;9.502;2024-01-30T14:46:31;26.40;;;14.02;;
78622;SDS011;67943;54.412;9.502;2024-01-30T14:51:32;25.45;;;15.38;;
78622;SDS011;67943;54.412;9.502;2024-01-30T14:56:34;28.58;;;15.82;;
78622;SDS011;67943;54.412;9.502;2024-01-30T15:01:37;23.95;;;14.73;;
78622;SDS011;67943;54.412;9.502;2024-01-30T15:06:38;24.25;;;13.15;;
78622;SDS011;67943;54.412;9.502;2024-01-30T15:11:45;21.90;;;12.23;;
78622;SDS011;67943;54.412;9.502;2024-01-30T15:16:48;22.80;;;10.75;;
78622;SDS011;67943;54.412;9.502;2024-01-30T15:21:49;16.10;;;8.25;;
78622;SDS011;67943;54.412;9.502;2024-01-30T15:26:51;10.27;;;5.13;;
78622;SDS011;67943;54.412;9.502;2024-01-30T15:31:54;11.00;;;5.50;;
78622;SDS011;67943;54.412;9.502;2024-01-30T15:36:58;9.02;;;4.68;;
78622;SDS011;67943;54.412;9.502;2024-01-30T15:42:00;12.02;;;3.85;;
78622;SDS011;67943;54.412;9.502;2024-01-30T15:47:03;8.20;;;2.83;;
78622;SDS011;67943;54.412;9.502;2024-01-30T15:52:05;7.18;;;2.60;;
78622;SDS011;67943;54.412;9.502;2024-01-30T15:57:06;8.77;;;2.55;;
78622;SDS011;67943;54.412;9.502;2024-01-30T16:02:09;5.57;;;2.13;;
78622;SDS011;67943;54.412;9.502;2024-01-30T16:07:11;10.93;;;3.05;;
78622;SDS011;67943;54.412;9.502;2024-01-30T16:12:12;4.72;;;2.30;;
78622;SDS011;67943;54.412;9.502;2024-01-30T16:17:15;3.75;;;2.20;;
78622;SDS011;67943;54.412;9.502;2024-01-30T16:22:16;6.43;;;2.20;;
78622;SDS011;67943;54.412;9.502;2024-01-30T16:27:18;6.20;;;2.00;;
78622;SDS011;67943;54.412;9.502;2024-01-30T16:32:21;4.93;;;1.90;;
78622;SDS011;67943;54.412;9.502;2024-01-30T16:37:22;8.05;;;3.08;;
78622;SDS011;67943;54.412;9.502;2024-01-30T16:42:25;5.75;;;1.50;;
78622;SDS011;67943;54.412;9.502;2024-01-30T16:47:28;7.40;;;1.95;;
78622;SDS011;67943;54.412;9.502;2024-01-30T16:52:30;6.75;;;2.28;;
78622;SDS011;67943;54.412;9.502;2024-01-30T16:57:31;5.85;;;1.73;;
78622;SDS011;67943;54.412;9.502;2024-01-30T17:02:34;6.40;;;1.45;;
78622;SDS011;67943;54.412;9.502;2024-01-30T17:07:35;4.65;;;2.22;;
78622;SDS011;67943;54.412;9.502;2024-01-30T17:12:37;8.57;;;2.10;;
78622;SDS011;67943;54.412;9.502;2024-01-30T17:17:40;6.43;;;2.05;;
78622;SDS011;67943;54.412;9.502;2024-01-30T17:22:41;5.00;;;1.77;;
78622;SDS011;67943;54.412;9.502;2024-01-30T17:27:43;6.45;;;2.80;;
78622;SDS011;67943;54.412;9.502;2024-01-30T17:32:47;9.48;;;3.55;;
78622;SDS011;67943;54.412;9.502;2024-01-30T17:37:48;7.63;;;4.25;;
78622;SDS011;67943;54.412;9.502;2024-01-30T17:42:50;8.65;;;5.13;;
78622;SDS011;67943;54.412;9.502;2024-01-30T17:47:53;10.15;;;6.03;;
78622;SDS011;67943;54.412;9.502;2024-01-30T17:52:54;11.82;;;6.93;;
78622;SDS011;67943;54.412;9.502;2024-01-30T17:57:57;14.10;;;7.93;;
78622;SDS011;67943;54.412;9.502;2024-01-30T18:03:00;16.13;;;8.32;;
78622;SDS011;67943;54.412;9.502;2024-01-30T18:08:04;14.00;;;7.03;;
78622;SDS011;67943;54.412;9.502;2024-01-30T18:13:07;10.07;;;7.15;;
78622;SDS011;67943;54.412;9.502;2024-01-30T18:18:10;11.68;;;6.55;;
78622;SDS011;67943;54.412;9.502;2024-01-30T18:23:13;9.80;;;5.68;;
78622;SDS011;67943;54.412;9.502;2024-01-30T18:28:14;11.85;;;5.47;;
78622;SDS011;67943;54.412;9.502;2024-01-30T18:33:17;9.82;;;6.15;;
78622;SDS011;67943;54.412;9.502;2024-01-30T18:38:19;11.18;;;6.57;;
78622;SDS011;67943;54.412;9.502;2024-01-30T18:43:20;10.65;;;6.63;;
78622;SDS011;67943;54.412;9.502;2024-01-30T18:48:23;11.00;;;6.15;;
78622;SDS011;67943;54.412;9.502;2024-01-30T18:53:25;12.85;;;7.40;;
78622;SDS011;67943;54.412;9.502;2024-01-30T18:58:26;17.20;;;7.72;;
78622;SDS011;67943;54.412;9.502;2024-01-30T19:03:29;13.90;;;7.70;;
78622;SDS011;67943;54.412;9.502;2024-01-30T19:08:30;15.95;;;7.65;;
78622;SDS011;67943;54.412;9.502;2024-01-30T19:13:32;15.90;;;7.72;;
78622;SDS011;67943;54.412;9.502;2024-01-30T19:18:35;12.80;;;7.93;;
78622;SDS011;67943;54.412;9.502;2024-01-30T19:23:36;15.30;;;8.10;;
78622;SDS011;67943;54.412;9.502;2024-01-30T19:28:39;12.40;;;7.25;;
78622;SDS011;67943;54.412;9.502;2024-01-30T19:33:42;14.80;;;7.40;;
78622;SDS011;67943;54.412;9.502;2024-01-30T19:38:43;14.95;;;7.63;;
78622;SDS011;67943;54.412;9.502;2024-01-30T19:43:46;10.65;;;6.60;;
78622;SDS011;67943;54.412;9.502;2024-01-30T19:48:49;14.02;;;7.18;;
78622;SDS011;67943;54.412;9.502;2024-01-30T19:53:50;14.02;;;6.78;;
78622;SDS011;67943;54.412;9.502;2024-01-30T19:58:52;13.65;;;6.55;;
78622;SDS011;67943;54.412;9.502;2024-01-30T20:03:55;14.00;;;6.57;;
78622;SDS011;67943;54.412;9.502;2024-01-30T20:08:56;13.40;;;7.20;;
78622;SDS011;67943;54.412;9.502;2024-01-30T20:13:58;16.98;;;7.65;;
78622;SDS011;67943;54.412;9.502;2024-01-30T20:19:01;17.17;;;8.43;;
78622;SDS011;67943;54.412;9.502;2024-01-30T20:24:02;20.38;;;7.78;;
78622;SDS011;67943;54.412;9.502;2024-01-30T20:29:04;15.93;;;7.30;;
78622;SDS011;67943;54.412;9.502;2024-01-30T20:34:07;18.77;;;6.97;;
78622;SDS011;67943;54.412;9.502;2024-01-30T20:39:09;18.67;;;6.82;;
78622;SDS011;67943;54.412;9.502;2024-01-30T20:44:11;17.13;;;7.35;;
78622;SDS011;67943;54.412;9.502;2024-01-30T20:49:16;20.58;;;7.55;;
78622;SDS011;67943;54.412;9.502;2024-01-30T20:54:18;22.73;;;8.57;;
78622;SDS011;67943;54.412;9.502;2024-01-30T20:59:19;19.92;;;7.80;;
78622;SDS011;67943;54.412;9.502;2024-01-30T21:04:22;14.98;;;7.40;;
78622;SDS011;67943;54.412;9.502;2024-01-30T21:09:24;23.00;;;8.32;;
78622;SDS011;67943;54.412;9.502;2024-01-30T21:14:25;23.23;;;9.80;;
78622;SDS011;67943;54.412;9.502;2024-01-30T21:19:29;29.50;;;9.75;;
78622;SDS011;67943;54.412;9.502;2024-01-30T21:24:31;21.58;;;8.25;;
78622;SDS011;67943;54.412;9.502;2024-01-30T21:29:32;19.50;;;7.00;;
78622;SDS011;67943;54.412;9.502;2024-01-30T21:34:35;20.67;;;7.38;;
78622;SDS011;67943;54.412;9.502;2024-01-30T21:39:36;15.93;;;5.72;;
78622;SDS011;67943;54.412;9.502;2024-01-30T21:44:40;16.95;;;6.20;;
78622;SDS011;67943;54.412;9.502;2024-01-30T21:49:42;18.42;;;5.93;;
78622;SDS011;67943;54.412;9.502;2024-01-30T21:54:45;13.50;;;5.05;;
78622;SDS011;67943;54.412;9.502;2024-01-30T21:59:47;14.93;;;5.15;;
78622;SDS011;67943;54.412;9.502;2024-01-30T22:04:50;14.95;;;5.07;;
78622;SDS011;67943;54.412;9.502;2024-01-30T22:09:51;19.85;;;4.38;;
78622;SDS011;67943;54.412;9.502;2024-01-30T22:14:53;16.58;;;4.40;;
78622;SDS011;67943;54.412;9.502;2024-01-30T22:19:56;12.30;;;2.83;;
78622;SDS011;67943;54.412;9.502;2024-01-30T22:24:57;13.10;;;2.70;;
78622;SDS011;67943;54.412;9.502;2024-01-30T22:29:59;12.48;;;2.30;;
78622;SDS011;67943;54.412;9.502;2024-01-30T22:35:01;11.18;;;2.20;;
78622;SDS011;67943;54.412;9.502;2024-01-30T22:40:04;11.93;;;3.13;;
78622;SDS011;67943;54.412;9.502;2024-01-30T22:45:07;15.15;;;3.03;;
78622;SDS011;67943;54.412;9.502;2024-01-30T22:50:10;19.08;;;2.90;;
78622;SDS011;67943;54.412;9.502;2024-01-30T22:55:11;17.45;;;3.25;;
78622;SDS011;67943;54.412;9.502;2024-01-30T23:00:13;13.32;;;2.90;;
78622;SDS011;67943;54.412;9.502;2024-01-30T23:05:17;23.70;;;3.88;;
78622;SDS011;67943;54.412;9.502;2024-01-30T23:10:18;23.05;;;2.88;;
78622;SDS011;67943;54.412;9.502;2024-01-30T23:15:20;21.27;;;3.08;;
78622;SDS011;67943;54.412;9.502;2024-01-30T23:20:23;16.10;;;3.72;;
78622;SDS011;67943;54.412;9.502;2024-01-30T23:25:25;13.32;;;2.08;;
78622;SDS011;67943;54.412;9.502;2024-01-30T23:30:26;16.10;;;2.03;;
78622;SDS011;67943;54.412;9.502;2024-01-30T23:35:29;10.23;;;2.30;;
78622;SDS011;67943;54.412;9.502;2024-01-30T23:40:31;20.80;;;3.95;;
78622;SDS011;67943;54.412;9.502;2024-01-30T23:45:32;19.60;;;2.90;;
78622;SDS011;67943;54.412;9.502;2024-01-30T23:50:35;15.85;;;3.22;;
78622;SDS011;67943;54.412;9.502;2024-01-30T23:55:36;12.25;;;2.70;;
